Time;durP1;ratioP1;P1;durP2;ratioP2;P2;SDS_P1;SDS_P2;PMS_P1;PMS_P2;Temp;Humidity;BMP_temperature;BMP_pressure;BME280_temperature;BME280_humidity;BME280_pressure;Samples;Min_cycle;Max_cycle;Signal;HPM_P1;HPM_P2
2022/03/01 00:01:28;;;;;;;85.90;43.70;;;77.40;2227.20;;;;;;4919342;29;20031;-82
2022/03/01 00:03:54;;;;;;;70.95;37.58;;;77.40;2227.20;;;;;;4922573;29;20118;-80
2022/03/01 00:06:20;;;;;;;78.85;42.17;;;77.40;2227.20;;;;;;4922571;29;20027;-81
2022/03/01 00:08:46;;;;;;;68.40;36.08;;;77.40;2227.20;;;;;;4939149;29;20369;-84
2022/03/01 00:11:13;;;;;;;124.70;75.43;;;77.40;2227.20;;;;;;4939464;29;20024;-84
2022/03/01 00:13:39;;;;;;;116.38;74.38;;;77.40;2227.20;;;;;;4939577;29;20046;-88
2022/03/01 00:16:06;;;;;;;108.05;66.50;;;77.10;2227.20;;;;;;4922421;29;20024;-83
2022/03/01 00:18:32;;;;;;;114.65;65.32;;;77.00;2227.20;;;;;;4922414;29;20063;-83
2022/03/01 00:20:58;;;;;;;160.15;81.97;;;77.10;2227.20;;;;;;4922041;29;20171;-81
2022/03/01 00:23:23;;;;;;;128.30;75.75;;;77.00;2227.20;;;;;;4922188;29;20374;-83
2022/03/01 00:25:49;;;;;;;116.57;67.65;;;77.00;2227.20;;;;;;4922294;29;20118;-83
2022/03/01 00:28:15;;;;;;;106.55;57.33;;;77.00;2227.20;;;;;;4921995;29;20706;-82
2022/03/01 00:30:41;;;;;;;112.90;63.05;;;76.90;2227.20;;;;;;4919014;29;20048;-84
2022/03/01 00:33:06;;;;;;;138.32;70.93;;;76.90;2227.20;;;;;;4919099;29;20407;-84
2022/03/01 00:35:32;;;;;;;113.63;64.28;;;52.10;2227.20;;;;;;4918803;29;20459;-83
2022/03/01 00:37:59;;;;;;;85.70;49.35;;;76.80;2227.20;;;;;;4919022;29;20067;-84
2022/03/01 00:40:25;;;;;;;58.45;31.05;;;76.90;2227.20;;;;;;4918831;29;20051;-84
2022/03/01 00:42:51;;;;;;;44.67;27.55;;;76.80;2227.20;;;;;;4934591;29;20091;-81
2022/03/01 00:45:17;;;;;;;47.88;26.63;;;76.80;2227.20;;;;;;4933034;29;20035;-84
2022/03/01 00:47:42;;;;;;;44.72;25.45;;;76.80;2227.20;;;;;;4919725;29;20028;-84
2022/03/01 00:50:08;;;;;;;91.07;55.95;;;76.80;2227.20;;;;;;4919091;29;20032;-83
2022/03/01 00:52:34;;;;;;;95.72;63.10;;;52.10;2227.20;;;;;;4918642;29;20024;-85
2022/03/01 00:55:00;;;;;;;106.18;70.80;;;52.00;2227.20;;;;;;4918558;29;20024;-84
2022/03/01 00:57:26;;;;;;;74.43;46.65;;;51.90;2227.20;;;;;;4918389;29;20031;-84
2022/03/01 00:59:52;;;;;;;77.78;48.10;;;51.90;2227.20;;;;;;4919344;29;20032;-84
2022/03/01 01:02:18;;;;;;;80.60;47.85;;;51.90;2227.20;;;;;;4919669;29;20035;-83
2022/03/01 01:04:43;;;;;;;88.85;51.20;;;51.90;2227.20;;;;;;4919401;29;20024;-83
2022/03/01 01:07:09;;;;;;;84.78;52.20;;;51.80;2227.20;;;;;;4918462;29;20024;-84
2022/03/01 01:09:35;;;;;;;82.88;52.20;;;51.80;2227.20;;;;;;4918118;29;20028;-83
2022/03/01 01:12:01;;;;;;;109.60;65.28;;;51.80;2227.20;;;;;;4918075;29;20076;-84
2022/03/01 01:14:27;;;;;;;123.60;68.80;;;51.80;2227.20;;;;;;4918064;29;20046;-84
2022/03/01 01:16:52;;;;;;;96.40;59.22;;;51.80;2227.20;;;;;;4918229;29;20080;-83
2022/03/01 01:19:18;;;;;;;83.07;52.22;;;51.80;2227.20;;;;;;4918147;29;20067;-81
2022/03/01 01:24:28;;;;;;;93.70;54.00;;;51.70;2227.20;;;;;;4919255;29;20031;-81
2022/03/01 01:26:54;;;;;;;88.20;55.80;;;51.70;2227.20;;;;;;4918005;29;20024;-85
2022/03/01 01:29:20;;;;;;;80.75;52.10;;;51.60;2227.20;;;;;;4917798;29;20087;-84
2022/03/01 01:31:45;;;;;;;85.13;53.50;;;51.60;2227.20;;;;;;4917658;29;20348;-83
2022/03/01 01:34:11;;;;;;;96.78;57.53;;;51.50;2227.20;;;;;;4917996;29;20107;-85
2022/03/01 01:36:37;;;;;;;87.75;53.05;;;51.50;2227.20;;;;;;4917872;29;20451;-83
2022/03/01 01:39:03;;;;;;;85.22;51.35;;;51.70;2227.20;;;;;;4917524;29;20036;-83
2022/03/01 01:41:29;;;;;;;65.28;40.78;;;51.70;2227.20;;;;;;4917605;29;20063;-83
2022/03/01 01:43:54;;;;;;;78.60;45.25;;;51.80;2227.20;;;;;;4917837;29;20020;-79
2022/03/01 01:46:20;;;;;;;147.55;72.13;;;51.80;2227.20;;;;;;4917440;29;20020;-83
2022/03/01 01:48:46;;;;;;;102.10;53.03;;;51.80;2227.20;;;;;;4917685;29;20032;-86
2022/03/01 01:51:12;;;;;;;96.78;55.17;;;51.70;2227.20;;;;;;4917644;29;20034;-85
2022/03/01 01:53:38;;;;;;;67.60;43.78;;;51.80;2227.20;;;;;;4917184;29;20032;-83
2022/03/01 01:56:04;;;;;;;65.97;40.80;;;51.80;2227.20;;;;;;4917536;29;20075;-81
2022/03/01 01:58:29;;;;;;;71.90;42.13;;;51.70;2227.20;;;;;;4901400;29;20060;-81
2022/03/01 02:00:55;;;;;;;87.57;52.70;;;51.60;2227.20;;;;;;4917509;29;20028;-84
2022/03/01 02:03:21;;;;;;;74.82;48.90;;;51.50;2227.20;;;;;;4917152;29;20355;-86
2022/03/01 02:05:47;;;;;;;69.82;44.55;;;51.50;2227.20;;;;;;4917158;29;20032;-80
2022/03/01 02:08:13;;;;;;;65.32;44.40;;;51.60;2227.20;;;;;;4917405;29;20024;-84
2022/03/01 02:10:38;;;;;;;66.93;45.30;;;51.60;2227.20;;;;;;4917196;29;20028;-84
2022/03/01 02:13:04;;;;;;;77.70;48.78;;;51.60;2227.20;;;;;;4916889;29;20058;-82
2022/03/01 02:15:30;;;;;;;74.68;47.58;;;51.60;2227.20;;;;;;4917200;29;20028;-86
2022/03/01 02:17:56;;;;;;;83.82;49.47;;;51.70;2227.20;;;;;;4917022;29;20177;-85
2022/03/01 02:20:23;;;;;;;80.07;47.85;;;51.80;2227.20;;;;;;4916557;29;20035;-84
2022/03/01 02:22:56;;;;;;;78.82;50.80;;;51.80;2227.20;;;;;;4918312;29;20042;-84
2022/03/01 02:25:22;;;;;;;83.35;50.80;;;51.90;2227.20;;;;;;4916648;29;20059;-84
2022/03/01 02:27:48;;;;;;;82.07;52.47;;;51.90;2227.20;;;;;;4916543;29;20035;-84
2022/03/01 02:30:14;;;;;;;82.95;55.63;;;52.00;2227.20;;;;;;4916585;29;20047;-85
2022/03/01 02:32:40;;;;;;;72.10;47.67;;;52.10;2227.20;;;;;;4916898;29;20028;-85
2022/03/01 02:35:08;;;;;;;70.40;46.88;;;51.80;2227.20;;;;;;4900997;29;20031;-83
2022/03/01 02:37:35;;;;;;;66.57;43.17;;;51.80;2227.20;;;;;;4918170;29;20023;-84
2022/03/01 02:40:02;;;;;;;68.57;44.75;;;52.00;2227.20;;;;;;4916681;29;20035;-83
2022/03/01 02:42:30;;;;;;;76.82;47.85;;;51.90;2227.20;;;;;;4916440;29;20028;-84
2022/03/01 02:44:56;;;;;;;81.55;49.58;;;51.90;2227.20;;;;;;4916668;29;20026;-85
2022/03/01 02:47:22;;;;;;;79.63;47.95;;;51.80;2227.20;;;;;;4916612;29;20024;-83
2022/03/01 02:49:48;;;;;;;80.45;48.17;;;51.80;2227.20;;;;;;4916301;29;20062;-84
2022/03/01 02:52:14;;;;;;;72.90;45.15;;;51.80;2227.20;;;;;;4916715;29;20028;-83
2022/03/01 02:54:39;;;;;;;74.65;45.25;;;51.90;2227.20;;;;;;4916596;29;20064;-82
2022/03/01 02:57:06;;;;;;;80.82;51.67;;;52.00;2227.20;;;;;;4916675;29;20059;-82
2022/03/01 02:59:33;;;;;;;83.75;52.55;;;52.00;2227.20;;;;;;4916436;29;20035;-85
2022/03/01 03:01:59;;;;;;;84.00;51.17;;;52.00;2227.20;;;;;;4916320;29;20448;-82
2022/03/01 03:04:25;;;;;;;82.15;51.53;;;52.00;2227.20;;;;;;4916384;29;20031;-84
2022/03/01 03:06:51;;;;;;;85.90;52.05;;;52.10;2227.20;;;;;;4916675;29;20031;-84
2022/03/01 03:09:17;;;;;;;86.63;52.67;;;52.10;2227.20;;;;;;4916404;29;20087;-83
2022/03/01 03:11:44;;;;;;;89.80;52.92;;;51.90;2227.20;;;;;;4916188;29;20020;-81
2022/03/01 03:14:09;;;;;;;86.47;52.20;;;51.80;2227.20;;;;;;4916485;29;20463;-83
2022/03/01 03:16:36;;;;;;;85.75;53.45;;;51.70;2227.20;;;;;;4916723;29;20032;-85
2022/03/01 03:19:02;;;;;;;95.20;56.95;;;51.80;2227.20;;;;;;4916507;29;20043;-85
2022/03/01 03:21:28;;;;;;;98.80;58.30;;;52.10;2227.20;;;;;;4917616;29;20021;-82
2022/03/01 03:23:54;;;;;;;98.60;58.25;;;51.70;2227.20;;;;;;4915985;29;20031;-84
2022/03/01 03:26:20;;;;;;;94.97;55.92;;;51.70;2227.20;;;;;;4917360;29;20028;-82
2022/03/01 03:28:46;;;;;;;97.53;53.33;;;51.90;2227.20;;;;;;4916212;29;20032;-81
2022/03/01 03:31:12;;;;;;;86.70;50.67;;;51.90;2227.20;;;;;;4916147;29;20035;-82
2022/03/01 03:33:39;;;;;;;94.57;54.22;;;51.80;2227.20;;;;;;4916161;29;20028;-80
2022/03/01 03:36:04;;;;;;;100.93;61.25;;;51.70;2227.20;;;;;;4917796;29;20028;-82
2022/03/01 03:38:30;;;;;;;102.57;58.67;;;51.80;2227.20;;;;;;4920709;29;20046;-81
2022/03/01 03:40:56;;;;;;;93.72;55.20;;;51.90;2227.20;;;;;;4919997;29;20451;-84
2022/03/01 03:43:22;;;;;;;90.75;51.88;;;51.90;2227.20;;;;;;4919970;29;20076;-81
2022/03/01 03:45:48;;;;;;;82.32;50.95;;;51.90;2227.20;;;;;;4919651;29;20042;-82
2022/03/01 03:48:14;;;;;;;82.72;52.38;;;51.90;2227.20;;;;;;4919880;29;20024;-84
2022/03/01 03:50:40;;;;;;;94.78;52.83;;;51.80;2227.20;;;;;;4919502;29;20521;-84
2022/03/01 03:53:06;;;;;;;101.05;55.60;;;51.90;2227.20;;;;;;4920941;29;20473;-83
2022/03/01 03:55:31;;;;;;;80.75;46.63;;;51.80;2227.20;;;;;;4919481;29;20039;-83
2022/03/01 03:57:57;;;;;;;60.92;34.08;;;51.90;2227.20;;;;;;4919521;29;20043;-85
2022/03/01 04:00:23;;;;;;;78.22;44.97;;;51.90;2227.20;;;;;;4920945;29;20351;-85
2022/03/01 04:02:52;;;;;;;64.13;38.15;;;51.90;2227.20;;;;;;4919567;29;20035;-83
2022/03/01 04:05:18;;;;;;;115.68;70.35;;;52.00;2227.20;;;;;;4919371;29;20028;-85
2022/03/01 04:07:47;;;;;;;111.35;66.47;;;51.80;2227.20;;;;;;4919511;29;20506;-83
2022/03/01 04:10:14;;;;;;;127.13;68.60;;;51.80;2227.20;;;;;;4919597;29;20032;-84
2022/03/01 04:12:40;;;;;;;124.50;71.22;;;51.80;2227.20;;;;;;4934622;29;20024;-82
2022/03/01 04:15:08;;;;;;;82.07;51.50;;;51.90;2227.20;;;;;;4940045;29;20039;-83
2022/03/01 04:17:34;;;;;;;88.63;53.95;;;52.00;2227.20;;;;;;4919248;29;20107;-85
2022/03/01 04:20:00;;;;;;;86.45;55.25;;;52.00;2227.20;;;;;;4920703;29;20040;-84
2022/03/01 04:22:26;;;;;;;75.88;45.22;;;52.10;2227.20;;;;;;4919379;29;20024;-82
2022/03/01 04:24:52;;;;;;;77.60;46.90;;;51.90;2227.20;;;;;;4920432;29;20458;-84
2022/03/01 04:27:18;;;;;;;56.15;32.40;;;52.00;2227.20;;;;;;4920492;29;20526;-81
2022/03/01 04:29:45;;;;;;;50.70;32.92;;;52.00;2227.20;;;;;;4918646;29;20135;-84
2022/03/01 04:32:11;;;;;;;52.80;32.08;;;52.10;2227.20;;;;;;4903597;29;20024;-82
2022/03/01 04:34:38;;;;;;;53.42;30.30;;;52.00;2227.20;;;;;;4919831;29;20207;-84
2022/03/01 04:37:04;;;;;;;36.30;22.80;;;52.10;2227.20;;;;;;4903434;29;20071;-84
2022/03/01 04:39:29;;;;;;;85.78;56.00;;;52.10;2227.20;;;;;;4903267;29;20123;-80
2022/03/01 04:41:56;;;;;;;99.60;61.97;;;52.00;2227.20;;;;;;4903176;29;20028;-84
2022/03/01 04:44:22;;;;;;;116.68;71.28;;;52.00;2227.20;;;;;;4903182;29;20047;-85
2022/03/01 04:46:48;;;;;;;181.65;98.72;;;52.00;2227.20;;;;;;4903090;29;20034;-82
2022/03/01 04:49:14;;;;;;;122.43;68.68;;;51.80;2227.20;;;;;;4902763;29;20032;-84
2022/03/01 04:51:40;;;;;;;126.15;66.60;;;51.90;2227.20;;;;;;4903189;29;20027;-82
2022/03/01 04:54:06;;;;;;;118.97;64.82;;;51.90;2227.20;;;;;;4902945;29;20031;-84
2022/03/01 04:56:32;;;;;;;142.38;80.60;;;52.00;2227.20;;;;;;4902989;29;20367;-84
2022/03/01 04:58:58;;;;;;;177.00;100.32;;;52.00;2227.20;;;;;;4919787;29;20047;-84
2022/03/01 05:01:24;;;;;;;159.32;91.55;;;52.00;2227.20;;;;;;4902680;29;20027;-82
2022/03/01 05:03:50;;;;;;;126.28;74.93;;;51.90;2227.20;;;;;;4902927;29;20034;-84
2022/03/01 05:06:16;;;;;;;107.80;65.18;;;51.90;2227.20;;;;;;4902840;29;20038;-82
2022/03/01 05:08:42;;;;;;;120.90;71.68;;;51.80;2227.20;;;;;;4919805;29;20035;-84
2022/03/01 05:11:08;;;;;;;106.80;69.22;;;51.70;2227.20;;;;;;4902688;29;20032;-83
2022/03/01 05:13:33;;;;;;;101.32;64.75;;;51.60;2227.20;;;;;;4919551;29;20048;-84
2022/03/01 05:15:59;;;;;;;99.45;62.05;;;51.60;2227.20;;;;;;4902529;29;20344;-83
2022/03/01 05:18:25;;;;;;;93.60;56.45;;;51.60;2227.20;;;;;;4902640;29;20475;-83
2022/03/01 05:20:51;;;;;;;110.15;71.57;;;51.60;2227.20;;;;;;4902304;29;20035;-84
2022/03/01 05:23:17;;;;;;;113.72;71.28;;;51.70;2227.20;;;;;;4902547;29;20024;-83
2022/03/01 05:25:43;;;;;;;120.85;77.55;;;51.60;2227.20;;;;;;4902585;29;20477;-82
2022/03/01 05:28:09;;;;;;;119.25;75.18;;;51.70;2227.20;;;;;;4919419;29;20172;-84
2022/03/01 05:30:35;;;;;;;137.77;91.43;;;51.60;2227.20;;;;;;4917211;29;20553;-82
2022/03/01 05:33:01;;;;;;;107.25;76.82;;;51.60;2227.20;;;;;;4921347;29;20043;-81
2022/03/01 05:35:30;;;;;;;91.90;61.70;;;51.60;2227.20;;;;;;4921032;29;20024;-82
2022/03/01 05:37:57;;;;;;;102.97;65.75;;;51.60;2227.20;;;;;;4921231;29;20485;-84
2022/03/01 05:40:27;;;;;;;93.13;57.42;;;51.60;2227.20;;;;;;4921069;29;20036;-86
2022/03/01 05:42:53;;;;;;;80.72;51.45;;;51.70;2227.20;;;;;;4921069;29;20023;-82
2022/03/01 05:45:20;;;;;;;71.93;46.63;;;51.90;2227.20;;;;;;4920985;29;20111;-80
2022/03/01 05:47:46;;;;;;;50.70;31.52;;;51.70;2227.20;;;;;;4920947;29;20027;-85
2022/03/01 05:50:14;;;;;;;47.42;28.17;;;51.80;2227.20;;;;;;4920521;29;20031;-86
2022/03/01 05:52:40;;;;;;;37.80;24.50;;;51.80;2227.20;;;;;;4921114;29;20462;-83
2022/03/01 05:55:08;;;;;;;34.20;22.35;;;51.80;2227.20;;;;;;4920832;29;20030;-84
2022/03/01 05:57:35;;;;;;;35.63;22.50;;;51.90;2227.20;;;;;;4937430;29;20027;-83
2022/03/01 06:00:03;;;;;;;37.22;24.88;;;51.90;2227.20;;;;;;4919964;29;20071;-86
2022/03/01 06:02:29;;;;;;;40.67;26.20;;;51.90;2227.20;;;;;;4920802;29;20533;-86
2022/03/01 06:04:54;;;;;;;75.60;43.80;;;51.90;2227.20;;;;;;4920518;29;20110;-82
2022/03/01 06:07:20;;;;;;;120.93;74.15;;;51.90;2227.20;;;;;;4920772;29;20126;-83
2022/03/01 06:09:46;;;;;;;116.38;74.28;;;52.00;2227.20;;;;;;4920648;29;20035;-82
2022/03/01 06:12:12;;;;;;;91.63;57.65;;;52.00;2227.20;;;;;;4920267;29;20373;-84
2022/03/01 06:14:38;;;;;;;82.78;52.70;;;52.00;2227.20;;;;;;4920396;29;20031;-83
2022/03/01 06:17:04;;;;;;;183.05;102.97;;;52.10;2227.20;;;;;;4920421;29;20363;-83
2022/03/01 06:19:30;;;;;;;102.45;69.25;;;76.80;2227.20;;;;;;4920161;29;20119;-83
2022/03/01 06:21:56;;;;;;;100.20;72.03;;;76.80;2227.20;;;;;;4920388;29;20138;-84
2022/03/01 06:24:23;;;;;;;91.82;61.80;;;76.80;2227.20;;;;;;4920311;29;20071;-84
2022/03/01 06:26:49;;;;;;;84.45;54.45;;;76.80;2227.20;;;;;;4919938;29;20024;-85
2022/03/01 06:29:15;;;;;;;70.40;44.47;;;52.10;2227.20;;;;;;4920016;29;20048;-84
2022/03/01 06:31:41;;;;;;;64.78;46.85;;;52.10;2227.20;;;;;;4919893;29;20034;-83
2022/03/01 06:34:06;;;;;;;80.15;49.38;;;52.10;2227.20;;;;;;4937549;29;20024;-83
2022/03/01 06:36:32;;;;;;;64.40;43.35;;;76.80;2227.20;;;;;;4920155;29;20030;-85
2022/03/01 06:38:58;;;;;;;59.08;39.33;;;52.10;2227.20;;;;;;4919888;29;20194;-83
2022/03/01 06:41:24;;;;;;;66.10;43.55;;;77.10;2227.20;;;;;;4920025;29;20459;-83
2022/03/01 06:43:50;;;;;;;68.35;44.83;;;52.10;2227.20;;;;;;4920101;29;20075;-84
2022/03/01 06:46:16;;;;;;;59.90;41.40;;;52.10;2227.20;;;;;;4919727;29;20023;-83
2022/03/01 06:48:42;;;;;;;64.38;44.13;;;52.10;2227.20;;;;;;4920139;29;20039;-85
2022/03/01 06:51:08;;;;;;;62.55;43.40;;;52.10;2227.20;;;;;;4919878;29;20023;-85
2022/03/01 06:53:37;;;;;;;63.58;41.42;;;52.10;2227.20;;;;;;4919606;29;20055;-85
2022/03/01 06:56:04;;;;;;;70.38;43.50;;;76.80;2227.20;;;;;;4919819;29;20529;-81
2022/03/01 06:58:30;;;;;;;137.15;103.88;;;76.80;2227.20;;;;;;4919854;29;20024;-85
2022/03/01 07:00:56;;;;;;;70.85;47.13;;;76.80;2227.20;;;;;;4919480;29;20577;-83
2022/03/01 07:03:23;;;;;;;61.05;43.35;;;52.10;2227.20;;;;;;4919615;29;20031;-84
2022/03/01 07:05:49;;;;;;;57.67;41.10;;;52.10;2227.20;;;;;;4919817;29;20462;-84
2022/03/01 07:08:15;;;;;;;54.80;39.40;;;76.80;2227.20;;;;;;4936903;29;20091;-83
2022/03/01 07:10:41;;;;;;;64.65;44.83;;;76.90;2227.20;;;;;;4919246;29;20080;-84
2022/03/01 07:13:07;;;;;;;62.13;42.72;;;76.90;2227.20;;;;;;4919750;29;20115;-84
2022/03/01 07:15:35;;;;;;;67.75;45.15;;;76.90;2227.20;;;;;;4936772;29;20035;-84
2022/03/01 07:18:01;;;;;;;61.78;41.42;;;76.90;2227.20;;;;;;4919694;29;20028;-84
2022/03/01 07:20:27;;;;;;;80.63;57.05;;;77.00;2227.20;;;;;;4919291;29;20030;-81
2022/03/01 07:22:53;;;;;;;85.68;60.15;;;77.10;2227.20;;;;;;4919608;29;20067;-83
2022/03/01 07:25:19;;;;;;;77.80;43.95;;;77.10;2227.20;;;;;;4936559;29;20098;-84
2022/03/01 07:27:49;;;;;;;71.03;44.70;;;77.10;2227.20;;;;;;4919314;29;20032;-85
2022/03/01 07:30:20;;;;;;;89.82;58.22;;;77.20;2227.20;;;;;;4919375;29;20044;-84
2022/03/01 07:32:46;;;;;;;97.28;61.85;;;77.20;2227.20;;;;;;4919535;29;20517;-84
2022/03/01 07:35:11;;;;;;;87.20;58.05;;;77.20;2227.20;;;;;;4919386;29;20063;-83
2022/03/01 07:37:37;;;;;;;93.20;60.97;;;77.10;2227.20;;;;;;4936625;29;20102;-84
2022/03/01 07:40:08;;;;;;;85.70;62.33;;;77.00;2227.20;;;;;;4919142;29;20035;-85
2022/03/01 07:42:34;;;;;;;61.97;39.88;;;77.10;2227.20;;;;;;4919205;29;20110;-84
2022/03/01 07:45:00;;;;;;;60.60;40.17;;;76.90;2227.20;;;;;;4919349;29;20118;-83
2022/03/01 07:47:26;;;;;;;71.15;47.22;;;76.90;2227.20;;;;;;4939353;29;20023;-77
2022/03/01 07:49:51;;;;;;;54.35;39.13;;;77.00;2227.20;;;;;;4935141;29;20385;-82
2022/03/01 07:52:17;;;;;;;76.85;51.80;;;77.00;2227.20;;;;;;4936978;29;20028;-84
2022/03/01 07:54:43;;;;;;;85.40;59.20;;;77.10;2227.20;;;;;;4919498;29;20024;-85
2022/03/01 07:57:09;;;;;;;85.50;54.58;;;77.10;2227.20;;;;;;4919261;29;20019;-82
2022/03/01 07:59:35;;;;;;;79.88;54.67;;;77.10;2227.20;;;;;;4919318;29;20456;-82
2022/03/01 08:02:01;;;;;;;71.47;49.05;;;77.20;2227.20;;;;;;4919104;29;20027;-82
2022/03/01 08:04:27;;;;;;;70.82;50.53;;;77.20;2227.20;;;;;;4918777;29;20490;-80
2022/03/01 08:06:52;;;;;;;95.50;61.47;;;77.30;2227.20;;;;;;4918972;29;20024;-83
2022/03/01 08:09:18;;;;;;;152.02;90.82;;;77.20;2227.20;;;;;;4919306;29;20032;-84
2022/03/01 08:11:44;;;;;;;171.05;108.38;;;77.30;2227.20;;;;;;4918764;29;20462;-82
2022/03/01 08:14:10;;;;;;;168.70;104.30;;;77.40;2227.20;;;;;;4918662;29;20051;-81
2022/03/01 08:16:35;;;;;;;116.90;78.90;;;77.40;2227.20;;;;;;4918557;29;20110;-82
2022/03/01 08:19:01;;;;;;;182.40;116.90;;;77.50;2227.20;;;;;;4935716;29;20032;-83
2022/03/01 08:21:27;;;;;;;169.32;115.07;;;77.60;2227.20;;;;;;4919130;29;20111;-85
2022/03/01 08:23:53;;;;;;;167.90;110.68;;;77.70;2227.20;;;;;;4921077;29;20031;-83
2022/03/01 08:26:18;;;;;;;156.82;101.07;;;102.40;2227.20;;;;;;4922340;29;20027;-81
2022/03/01 08:28:46;;;;;;;129.40;81.60;;;77.70;2227.20;;;;;;4922027;29;20058;-82
2022/03/01 08:31:12;;;;;;;136.98;92.65;;;77.70;2227.20;;;;;;4921626;29;20033;-83
2022/03/01 08:33:38;;;;;;;115.10;73.97;;;77.70;2227.20;;;;;;4922183;29;20031;-83
2022/03/01 08:36:05;;;;;;;49.72;35.45;;;102.40;2227.20;;;;;;4922154;29;20078;-82
2022/03/01 08:38:30;;;;;;;53.90;34.53;;;102.50;2227.20;;;;;;4939121;29;20107;-82
2022/03/01 08:40:56;;;;;;;39.55;25.65;;;102.60;2227.20;;;;;;4921951;29;20114;-82
2022/03/01 08:43:23;;;;;;;51.20;36.65;;;102.70;2227.20;;;;;;4939075;29;20035;-81
2022/03/01 08:45:49;;;;;;;40.80;25.23;;;102.60;2227.20;;;;;;4938676;29;20031;-83
2022/03/01 08:48:15;;;;;;;35.15;24.75;;;102.70;2227.20;;;;;;4921891;29;20055;-83
2022/03/01 08:50:41;;;;;;;45.63;27.58;;;102.70;2227.20;;;;;;4921875;29;20062;-81
2022/03/01 08:53:07;;;;;;;41.05;28.88;;;102.70;2227.20;;;;;;4921566;29;20028;-84
2022/03/01 08:55:36;;;;;;;46.63;29.55;;;102.80;2227.20;;;;;;4921890;29;20034;-82
2022/03/01 08:58:02;;;;;;;40.33;24.58;;;102.80;2227.20;;;;;;4929971;28;20019;-85
2022/03/01 09:00:28;;;;;;;30.25;22.52;;;102.80;2227.20;;;;;;4949323;28;20370;-84
2022/03/01 09:02:54;;;;;;;36.63;24.10;;;102.90;2227.20;;;;;;4949193;28;20012;-81
2022/03/01 09:05:20;;;;;;;24.92;17.23;;;102.90;2227.20;;;;;;4953225;28;20019;-83
2022/03/01 09:07:46;;;;;;;36.45;22.27;;;102.90;2227.20;;;;;;4947041;28;20420;-82
2022/03/01 09:10:12;;;;;;;31.15;20.35;;;103.00;2227.20;;;;;;4957448;28;20468;-81
2022/03/01 09:12:38;;;;;;;34.20;23.90;;;103.00;2227.20;;;;;;4959053;28;20029;-80
2022/03/01 09:15:04;;;;;;;26.58;18.02;;;103.00;2227.20;;;;;;4959430;28;20026;-81
2022/03/01 09:17:30;;;;;;;37.65;22.55;;;103.10;2227.20;;;;;;4959312;28;20528;-83
2022/03/01 09:19:56;;;;;;;39.08;26.65;;;103.00;2227.20;;;;;;4959123;28;20030;-80
2022/03/01 09:22:22;;;;;;;57.08;37.95;;;103.00;2227.20;;;;;;4959355;28;20196;-83
2022/03/01 09:24:48;;;;;;;74.90;41.88;;;103.00;2227.20;;;;;;4959124;28;20027;-83
2022/03/01 09:27:14;;;;;;;46.83;30.58;;;103.00;2227.20;;;;;;4959129;28;20118;-81
2022/03/01 09:29:40;;;;;;;52.97;33.55;;;103.00;2227.20;;;;;;4958866;28;20050;-81
2022/03/01 09:32:06;;;;;;;39.13;25.52;;;103.10;2227.20;;;;;;4958845;28;20046;-83
2022/03/01 09:34:32;;;;;;;42.22;28.27;;;103.00;2227.20;;;;;;4958709;28;20019;-81
2022/03/01 09:36:58;;;;;;;41.88;27.45;;;103.30;2227.20;;;;;;4959047;28;20097;-80
2022/03/01 09:39:24;;;;;;;30.63;19.67;;;128.10;2252.80;;;;;;4976201;28;20110;-81
2022/03/01 09:41:51;;;;;;;60.75;36.28;;;128.20;2252.80;;;;;;4958647;28;20134;-81
2022/03/01 09:44:17;;;;;;;42.38;27.45;;;128.20;2252.80;;;;;;4958951;28;20154;-84
2022/03/01 09:46:43;;;;;;;51.25;33.85;;;128.30;2252.80;;;;;;4958861;28;20050;-79
2022/03/01 09:49:10;;;;;;;51.00;31.73;;;128.30;2252.80;;;;;;4958771;28;20069;-81
2022/03/01 09:51:39;;;;;;;69.03;43.42;;;128.40;2252.80;;;;;;4976349;28;20030;-77
2022/03/01 09:54:05;;;;;;;44.05;28.08;;;128.40;2252.80;;;;;;4958684;28;20033;-77
2022/03/01 09:56:31;;;;;;;54.03;39.92;;;128.90;2252.80;;;;;;4975878;28;20026;-79
2022/03/01 09:58:57;;;;;;;42.83;31.13;;;128.30;2252.80;;;;;;4958627;28;20072;-82
2022/03/01 10:01:24;;;;;;;28.90;20.40;;;128.20;2252.80;;;;;;4958784;28;20023;-81
2022/03/01 10:03:52;;;;;;;35.92;24.83;;;128.10;2252.80;;;;;;4958370;28;20027;-80
2022/03/01 10:06:21;;;;;;;38.83;27.45;;;128.10;2252.80;;;;;;4958398;28;20113;-81
2022/03/01 10:08:54;;;;;;;39.67;32.35;;;128.00;2252.80;;;;;;4958188;28;20092;-82
2022/03/01 10:11:20;;;;;;;41.95;28.58;;;103.30;2227.20;;;;;;4958378;28;20029;-79
2022/03/01 10:13:46;;;;;;;38.72;27.40;;;103.30;2227.20;;;;;;4958278;28;20109;-78
2022/03/01 10:16:13;;;;;;;35.60;26.35;;;103.30;2227.20;;;;;;4957904;28;20062;-80
2022/03/01 10:18:49;;;;;;;33.45;27.40;;;103.30;2227.20;;;;;;4958261;28;20030;-79
2022/03/01 10:21:15;;;;;;;27.42;21.70;;;103.30;2227.20;;;;;;4958253;28;20026;-81
2022/03/01 10:23:51;;;;;;;30.63;19.00;;;103.30;2227.20;;;;;;4957890;28;20018;-80
2022/03/01 10:26:20;;;;;;;33.40;22.85;;;103.30;2227.20;;;;;;4958151;28;20465;-80
2022/03/01 10:28:48;;;;;;;26.50;18.75;;;128.00;2252.80;;;;;;4957862;28;20019;-79
2022/03/01 10:31:19;;;;;;;22.63;17.65;;;128.10;2252.80;;;;;;4957846;28;20026;-80
2022/03/01 10:34:03;;;;;;;28.92;19.95;;;128.10;2252.80;;;;;;4957971;28;20019;-80
2022/03/01 10:36:34;;;;;;;22.83;15.75;;;128.10;2252.80;;;;;;4975059;28;20026;-78
2022/03/01 10:39:02;;;;;;;30.35;19.30;;;128.20;2252.80;;;;;;4957877;28;20121;-78
2022/03/01 10:41:31;;;;;;;45.13;27.55;;;128.30;2252.80;;;;;;4957938;28;20033;-76
2022/03/01 10:43:59;;;;;;;31.35;23.25;;;128.40;2252.80;;;;;;4974952;28;20019;-79
2022/03/01 10:46:28;;;;;;;33.78;22.67;;;128.40;2252.80;;;;;;4957350;28;20027;-78
2022/03/01 10:49:13;;;;;;;26.67;18.10;;;128.30;2252.80;;;;;;4957863;28;20147;-80
2022/03/01 10:51:55;;;;;;;24.58;16.42;;;128.40;2252.80;;;;;;4957508;28;20026;-82
2022/03/01 10:54:27;;;;;;;39.33;27.05;;;128.50;2252.80;;;;;;4975088;28;20085;-80
2022/03/01 10:56:55;;;;;;;34.83;22.00;;;128.60;2252.80;;;;;;4975349;28;20027;-80
2022/03/01 10:59:23;;;;;;;29.65;21.30;;;128.70;2252.80;;;;;;4957379;28;20436;-79
2022/03/01 11:01:50;;;;;;;27.45;21.75;;;128.80;2252.80;;;;;;4957590;28;20029;-75
2022/03/01 11:04:16;;;;;;;23.58;17.58;;;128.90;2252.80;;;;;;4957689;28;20022;-79
2022/03/01 11:06:43;;;;;;;21.13;15.20;;;153.60;2252.80;;;;;;4974777;28;20053;-79
2022/03/01 11:09:11;;;;;;;27.33;18.33;;;153.60;2252.80;;;;;;4957743;28;20522;-78
2022/03/01 11:11:38;;;;;;;17.95;13.77;;;153.80;2252.80;;;;;;4975511;28;20019;-71
2022/03/01 11:14:04;;;;;;;22.17;13.65;;;153.80;2252.80;;;;;;4963171;28;20022;-74
2022/03/01 11:17:24;;;;;;;25.90;17.40;;;153.80;2252.80;;;;;;4975599;28;20027;-73
2022/03/01 11:20:01;;;;;;;36.97;23.88;;;153.70;2252.80;;;;;;4914653;29;20434;-77
2022/03/01 11:22:39;;;;;;;26.20;17.25;;;153.80;2252.80;;;;;;4966888;28;20038;-75
2022/03/01 11:25:06;;;;;;;20.35;14.63;;;153.80;2252.80;;;;;;4957744;28;20126;-75
2022/03/01 11:27:43;;;;;;;27.80;17.90;;;153.80;2252.80;;;;;;4974387;28;20030;-77
2022/03/01 11:30:11;;;;;;;27.77;19.70;;;153.70;2252.80;;;;;;4957188;28;20068;-76
2022/03/01 11:32:39;;;;;;;30.77;18.77;;;153.70;2252.80;;;;;;4957415;28;20023;-79
2022/03/01 11:35:06;;;;;;;32.47;20.90;;;153.70;2252.80;;;;;;4957388;28;20022;-74
2022/03/01 11:37:31;;;;;;;17.92;13.48;;;153.70;2252.80;;;;;;4957350;28;20031;-78
2022/03/01 11:39:59;;;;;;;18.42;14.23;;;153.70;2252.80;;;;;;4957009;28;20031;-77
2022/03/01 11:42:32;;;;;;;20.20;14.02;;;153.80;2252.80;;;;;;4974658;28;20029;-77
2022/03/01 11:44:57;;;;;;;30.98;20.73;;;153.80;2252.80;;;;;;4974686;28;20520;-80
2022/03/01 11:47:28;;;;;;;27.50;19.27;;;153.80;2252.80;;;;;;4956943;28;20122;-76
2022/03/01 11:49:54;;;;;;;17.55;13.18;;;153.90;2252.80;;;;;;4957290;28;20026;-78
2022/03/01 11:52:26;;;;;;;28.20;17.42;;;153.90;2252.80;;;;;;4957215;28;20081;-78
2022/03/01 11:54:54;;;;;;;22.42;13.30;;;153.80;2252.80;;;;;;4956708;28;20027;-76
2022/03/01 11:57:26;;;;;;;16.30;11.20;;;153.90;2252.80;;;;;;4957450;28;20027;-77
2022/03/01 11:59:54;;;;;;;56.53;33.17;;;153.90;2252.80;;;;;;4978093;28;20461;-79
2022/03/01 12:02:24;;;;;;;32.20;17.73;;;153.80;2252.80;;;;;;4960576;28;20019;-78
2022/03/01 12:04:52;;;;;;;14.57;10.65;;;153.90;2252.80;;;;;;4960681;28;20033;-77